Time;durP1;ratioP1;P1;durP2;ratioP2;P2;SDS_P1;SDS_P2;PMS_P1;PMS_P2;Temp;Humidity;BMP_temperature;BMP_pressure;BME280_temperature;BME280_humidity;BME280_pressure;Samples;Min_cycle;Max_cycle;Signal;HPM_P1;HPM_P2
2023/05/04 00:00:48;;;;;;;12.43;6.90;;;11.50;99.90;;;;;;4160785;28;20428;-73
2023/05/04 00:02:49;;;;;;;14.97;7.33;;;11.50;99.90;;;;;;4161121;28;20049;-73
2023/05/04 00:04:52;;;;;;;12.37;6.63;;;11.40;99.90;;;;;;4160322;28;20037;-69
2023/05/04 00:06:53;;;;;;;15.57;7.87;;;11.40;99.90;;;;;;4148610;28;20441;-60
2023/05/04 00:08:54;;;;;;;15.43;7.80;;;11.40;99.90;;;;;;4144502;28;20042;-59
2023/05/04 00:10:55;;;;;;;17.53;7.43;;;11.30;99.90;;;;;;4144305;28;20038;-58
2023/05/04 00:12:56;;;;;;;17.90;6.87;;;11.30;99.90;;;;;;4128688;28;20122;-60
2023/05/04 00:14:57;;;;;;;14.33;6.63;;;11.30;99.90;;;;;;4144055;28;20034;-67
2023/05/04 00:16:58;;;;;;;11.43;6.60;;;11.30;99.90;;;;;;4145071;28;20100;-72
2023/05/04 00:19:00;;;;;;;12.70;6.90;;;11.30;99.90;;;;;;4144540;28;20391;-62
2023/05/04 00:21:01;;;;;;;12.93;6.37;;;11.30;99.90;;;;;;4144713;28;20131;-70
2023/05/04 00:23:02;;;;;;;17.00;7.43;;;11.30;99.90;;;;;;4148387;28;20041;-71
2023/05/04 00:25:03;;;;;;;10.50;6.57;;;11.30;99.90;;;;;;4160807;28;20045;-71
2023/05/04 00:27:05;;;;;;;11.40;6.30;;;11.20;99.90;;;;;;4160298;28;20030;-71
2023/05/04 00:29:06;;;;;;;16.47;6.90;;;11.20;99.90;;;;;;4155555;28;20091;-63
2023/05/04 00:31:07;;;;;;;11.27;6.87;;;11.10;99.90;;;;;;4145487;28;20077;-69
2023/05/04 00:33:08;;;;;;;13.07;7.63;;;11.10;99.90;;;;;;4144948;28;20430;-73
2023/05/04 00:35:09;;;;;;;11.60;7.07;;;11.10;99.90;;;;;;4144355;28;20021;-72
2023/05/04 00:37:10;;;;;;;17.97;7.77;;;11.00;99.90;;;;;;4144078;28;20046;-73
2023/05/04 00:39:12;;;;;;;13.00;6.77;;;11.00;99.90;;;;;;4144521;28;20076;-73
2023/05/04 00:41:13;;;;;;;16.07;8.17;;;10.90;99.90;;;;;;4144036;28;20033;-72
2023/05/04 00:43:14;;;;;;;10.73;7.13;;;10.80;99.90;;;;;;4144843;28;20084;-73
2023/05/04 00:45:15;;;;;;;17.03;7.93;;;10.80;99.90;;;;;;4157903;28;20478;-68
2023/05/04 00:47:18;;;;;;;14.97;8.10;;;10.70;99.90;;;;;;4160606;28;20041;-71
2023/05/04 00:49:20;;;;;;;23.83;7.47;;;10.70;99.90;;;;;;4157957;28;20055;-72
2023/05/04 00:51:23;;;;;;;10.53;6.13;;;10.70;99.90;;;;;;4160300;28;20037;-69
2023/05/04 00:53:24;;;;;;;10.83;5.87;;;10.70;99.90;;;;;;4163020;28;20083;-72
2023/05/04 00:55:26;;;;;;;12.30;6.53;;;10.70;99.90;;;;;;4162304;28;20042;-69
2023/05/04 00:57:27;;;;;;;8.43;5.80;;;10.70;99.90;;;;;;4146413;28;20915;-70
2023/05/04 00:59:28;;;;;;;11.47;6.10;;;10.70;99.90;;;;;;4147936;28;20072;-69
2023/05/04 01:01:29;;;;;;;10.57;5.63;;;10.70;99.90;;;;;;4154117;28;20457;-68
2023/05/04 01:03:31;;;;;;;11.37;5.80;;;10.70;99.90;;;;;;4163006;28;20108;-73
2023/05/04 01:05:37;;;;;;;11.47;5.87;;;10.60;99.90;;;;;;4163224;28;20033;-69
2023/05/04 01:07:41;;;;;;;8.60;5.87;;;10.60;99.90;;;;;;4163670;28;20029;-63
2023/05/04 01:10:16;;;;;;;11.37;6.23;;;10.60;99.90;;;;;;4162589;28;20087;-66
2023/05/04 01:12:24;;;;;;;10.67;6.40;;;10.60;99.90;;;;;;4129350;28;20041;-64
2023/05/04 01:14:28;;;;;;;13.27;6.17;;;10.50;99.90;;;;;;4146365;28;20072;-70
2023/05/04 01:16:29;;;;;;;9.80;6.20;;;10.60;99.90;;;;;;4128963;28;20050;-72
2023/05/04 01:18:31;;;;;;;11.03;6.30;;;10.50;99.90;;;;;;4148113;28;20045;-74
2023/05/04 01:20:32;;;;;;;9.23;5.53;;;10.50;99.90;;;;;;4162687;28;20448;-74
2023/05/04 01:22:34;;;;;;;8.57;6.10;;;10.50;99.90;;;;;;4162903;28;20049;-70
2023/05/04 01:24:36;;;;;;;9.53;5.97;;;10.40;99.90;;;;;;4163126;28;20033;-74
2023/05/04 01:26:40;;;;;;;11.20;6.47;;;10.40;99.90;;;;;;4163106;28;20045;-70
2023/05/04 01:28:49;;;;;;;11.17;5.97;;;10.40;99.90;;;;;;4162875;28;20033;-73
2023/05/04 01:30:55;;;;;;;11.20;5.90;;;10.30;99.90;;;;;;4161857;28;20030;-61
2023/05/04 01:32:59;;;;;;;10.03;6.23;;;10.30;99.90;;;;;;4149095;28;20026;-59
2023/05/04 01:35:01;;;;;;;12.33;5.57;;;10.30;99.90;;;;;;4149230;28;20037;-69
2023/05/04 01:37:02;;;;;;;11.97;5.97;;;10.30;99.90;;;;;;4145893;28;20049;-65
2023/05/04 01:39:04;;;;;;;12.33;6.27;;;10.30;99.90;;;;;;4146559;28;20041;-68
2023/05/04 01:41:05;;;;;;;9.83;5.33;;;10.30;99.90;;;;;;4145612;28;20041;-72
2023/05/04 01:43:06;;;;;;;10.33;6.17;;;10.30;99.90;;;;;;4129566;28;20108;-71
2023/05/04 01:45:08;;;;;;;11.60;6.60;;;10.30;99.90;;;;;;4145902;28;20041;-66
2023/05/04 01:47:09;;;;;;;9.73;6.23;;;10.20;99.90;;;;;;4147137;28;20030;-65
2023/05/04 01:49:10;;;;;;;10.07;6.03;;;10.20;99.90;;;;;;4152553;28;20096;-70
2023/05/04 01:51:11;;;;;;;12.10;6.37;;;10.20;99.90;;;;;;4147701;28;20088;-68
2023/05/04 01:53:13;;;;;;;13.53;6.40;;;10.20;99.90;;;;;;4147018;28;20026;-65
2023/05/04 01:55:14;;;;;;;11.70;6.23;;;10.20;99.90;;;;;;4147804;28;20490;-73
2023/05/04 01:57:15;;;;;;;12.90;6.97;;;10.20;99.90;;;;;;4146198;28;20091;-70
2023/05/04 01:59:16;;;;;;;10.43;5.90;;;10.20;99.90;;;;;;4145668;28;20053;-65
2023/05/04 02:01:17;;;;;;;11.97;6.50;;;10.20;99.90;;;;;;4146018;28;20529;-66
2023/05/04 02:03:18;;;;;;;10.07;6.27;;;10.20;99.90;;;;;;4144581;28;20054;-74
2023/05/04 02:05:19;;;;;;;11.07;5.90;;;10.20;99.90;;;;;;4146815;28;20034;-65
2023/05/04 02:07:20;;;;;;;10.53;6.43;;;10.20;99.90;;;;;;4145587;28;20445;-70
2023/05/04 02:09:21;;;;;;;9.37;6.50;;;10.20;99.90;;;;;;4147600;28;20084;-69
2023/05/04 02:11:23;;;;;;;13.73;6.33;;;10.30;99.90;;;;;;4145471;28;20038;-61
2023/05/04 02:13:24;;;;;;;9.27;6.03;;;10.30;99.90;;;;;;4158743;28;20026;-70
2023/05/04 02:15:25;;;;;;;13.20;6.40;;;10.30;99.90;;;;;;4145433;28;20034;-71
2023/05/04 02:17:26;;;;;;;9.37;6.37;;;10.40;99.90;;;;;;4146291;28;20104;-66
2023/05/04 02:19:27;;;;;;;14.30;6.60;;;10.30;99.90;;;;;;4145082;28;20030;-73
2023/05/04 02:21:29;;;;;;;10.33;6.70;;;10.30;99.90;;;;;;4145919;28;20087;-65
2023/05/04 02:23:30;;;;;;;12.70;7.10;;;10.20;99.90;;;;;;4145679;28;20449;-69
2023/05/04 02:25:31;;;;;;;12.93;7.13;;;10.10;99.90;;;;;;4145315;28;20049;-70
2023/05/04 02:27:32;;;;;;;16.00;6.97;;;10.00;99.90;;;;;;4127991;28;20050;-59
2023/05/04 02:29:33;;;;;;;11.23;6.20;;;9.90;99.90;;;;;;4155495;28;20045;-70
2023/05/04 02:31:34;;;;;;;15.37;6.90;;;9.90;99.90;;;;;;4162170;28;20081;-68
2023/05/04 02:33:37;;;;;;;12.50;7.70;;;9.80;99.90;;;;;;4160839;28;20041;-64
2023/05/04 02:35:38;;;;;;;14.90;7.40;;;9.80;99.90;;;;;;4156700;28;20111;-67
2023/05/04 02:37:39;;;;;;;17.23;9.40;;;9.70;99.90;;;;;;4148619;28;20026;-72
2023/05/04 02:39:40;;;;;;;15.87;7.83;;;9.70;99.90;;;;;;4145590;28;20034;-71
2023/05/04 02:41:41;;;;;;;12.67;7.43;;;9.70;99.90;;;;;;4144301;28;20034;-65
2023/05/04 02:43:42;;;;;;;14.43;6.87;;;9.80;99.90;;;;;;4146047;28;20096;-67
2023/05/04 02:45:44;;;;;;;11.30;7.03;;;9.80;99.90;;;;;;4145061;28;20041;-64
2023/05/04 02:47:45;;;;;;;15.30;6.40;;;9.80;99.90;;;;;;4146815;28;20030;-64
2023/05/04 02:49:46;;;;;;;11.67;6.10;;;9.90;99.90;;;;;;4160302;28;20437;-67
2023/05/04 02:51:47;;;;;;;10.97;6.33;;;9.90;99.90;;;;;;4162109;28;20021;-74
2023/05/04 02:53:48;;;;;;;12.23;6.63;;;9.90;99.90;;;;;;4161078;28;20088;-73
2023/05/04 02:55:49;;;;;;;11.27;6.70;;;9.90;99.90;;;;;;4162011;28;20063;-71
2023/05/04 02:57:50;;;;;;;14.57;6.43;;;9.90;99.90;;;;;;4160552;28;20045;-70
2023/05/04 02:59:51;;;;;;;13.77;7.10;;;10.00;99.90;;;;;;4150016;28;20068;-73
2023/05/04 03:01:52;;;;;;;11.63;7.10;;;10.00;99.90;;;;;;4144930;28;20042;-71
2023/05/04 03:03:53;;;;;;;13.27;6.70;;;10.00;99.90;;;;;;4144883;28;20461;-59
2023/05/04 03:05:55;;;;;;;14.17;7.50;;;10.10;99.90;;;;;;4145784;28;20042;-71
2023/05/04 03:07:56;;;;;;;13.67;7.77;;;10.00;99.90;;;;;;4144807;28;20030;-64
2023/05/04 03:09:57;;;;;;;15.23;8.10;;;10.00;99.90;;;;;;4149389;28;20030;-70
2023/05/04 03:11:58;;;;;;;13.20;7.53;;;10.00;99.90;;;;;;4159871;28;20041;-70
2023/05/04 03:13:59;;;;;;;14.67;7.80;;;10.00;99.90;;;;;;4160342;28;20084;-69
2023/05/04 03:16:01;;;;;;;17.43;6.87;;;10.00;99.90;;;;;;4160025;28;20088;-70
2023/05/04 03:18:02;;;;;;;16.03;7.57;;;10.00;99.90;;;;;;4161908;28;20095;-71
2023/05/04 03:20:03;;;;;;;17.90;6.70;;;10.00;99.90;;;;;;4160778;28;20075;-66
2023/05/04 03:22:04;;;;;;;16.83;7.40;;;10.00;99.90;;;;;;4161893;28;20063;-67
2023/05/04 03:24:06;;;;;;;15.37;6.40;;;10.00;99.90;;;;;;4160503;28;20046;-73
2023/05/04 03:26:07;;;;;;;13.83;6.60;;;10.10;99.90;;;;;;4161259;28;20083;-69
2023/05/04 03:28:08;;;;;;;10.47;5.83;;;10.10;99.90;;;;;;4161081;28;20037;-61
2023/05/04 03:30:10;;;;;;;9.67;5.67;;;10.20;99.90;;;;;;4146707;28;20049;-73
2023/05/04 03:32:14;;;;;;;10.57;5.70;;;10.20;99.90;;;;;;4145056;28;20073;-70
2023/05/04 03:34:20;;;;;;;9.03;5.20;;;10.20;99.90;;;;;;4144658;28;20145;-72
2023/05/04 03:36:21;;;;;;;10.07;5.10;;;10.20;99.90;;;;;;4127676;28;20070;-72
2023/05/04 03:38:22;;;;;;;15.80;5.67;;;10.30;99.90;;;;;;4147230;28;20030;-71
2023/05/04 03:40:23;;;;;;;9.77;5.73;;;10.30;99.90;;;;;;4150244;28;20030;-73
2023/05/04 03:42:24;;;;;;;8.83;5.93;;;10.20;99.90;;;;;;4157881;28;20096;-71
2023/05/04 03:44:25;;;;;;;13.83;6.93;;;10.30;99.90;;;;;;4160806;28;20041;-71
2023/05/04 03:46:27;;;;;;;13.17;7.37;;;10.30;99.90;;;;;;4154921;28;20042;-67
2023/05/04 03:48:29;;;;;;;11.87;7.13;;;10.20;99.90;;;;;;4149414;28;20441;-64
2023/05/04 03:50:30;;;;;;;12.67;7.67;;;10.20;99.90;;;;;;4155280;28;20038;-71
2023/05/04 03:52:31;;;;;;;13.50;7.80;;;10.20;99.90;;;;;;4145273;28;20072;-71
2023/05/04 03:54:32;;;;;;;14.23;7.57;;;10.30;99.90;;;;;;4149204;28;20037;-71
2023/05/04 03:56:34;;;;;;;19.40;6.93;;;10.20;99.90;;;;;;4150217;28;20087;-72
2023/05/04 03:58:35;;;;;;;12.40;6.73;;;10.30;99.90;;;;;;4158891;28;20029;-68
2023/05/04 04:00:36;;;;;;;16.40;7.70;;;10.40;99.90;;;;;;4156825;28;20052;-70
2023/05/04 04:02:37;;;;;;;16.23;6.70;;;10.40;99.90;;;;;;4160561;28;20033;-70
2023/05/04 04:04:38;;;;;;;14.80;6.03;;;10.40;99.90;;;;;;4160658;28;20049;-73
2023/05/04 04:06:40;;;;;;;17.10;6.70;;;10.40;99.90;;;;;;4153958;28;20156;-68
2023/05/04 04:08:41;;;;;;;14.30;5.70;;;10.30;99.90;;;;;;4145952;28;20521;-65
2023/05/04 04:10:42;;;;;;;14.80;5.87;;;10.30;99.90;;;;;;4148585;28;20037;-63
2023/05/04 04:12:43;;;;;;;14.03;5.70;;;10.30;99.90;;;;;;4146058;28;20084;-61
2023/05/04 04:14:46;;;;;;;14.53;7.13;;;10.30;99.90;;;;;;4145422;28;20041;-70
2023/05/04 04:16:47;;;;;;;14.50;7.97;;;10.30;99.90;;;;;;4144407;28;20042;-69
2023/05/04 04:18:48;;;;;;;19.67;8.17;;;10.30;99.90;;;;;;4146191;28;20041;-60
2023/05/04 04:20:49;;;;;;;16.33;7.23;;;10.30;99.90;;;;;;4144392;28;20042;-66
2023/05/04 04:22:51;;;;;;;20.30;7.83;;;10.20;99.90;;;;;;4145007;28;20034;-67
2023/05/04 04:24:52;;;;;;;18.43;7.40;;;10.20;99.90;;;;;;4144176;28;20525;-68
2023/05/04 04:26:53;;;;;;;15.93;7.07;;;10.20;99.90;;;;;;4145613;28;20084;-68
2023/05/04 04:28:54;;;;;;;24.70;7.60;;;10.20;99.90;;;;;;4147215;28;20029;-73
2023/05/04 04:30:55;;;;;;;18.40;8.33;;;10.20;99.90;;;;;;4155949;28;20474;-72
2023/05/04 04:32:56;;;;;;;22.67;8.37;;;10.20;99.90;;;;;;4161938;28;20109;-61
2023/05/04 04:34:57;;;;;;;24.97;12.03;;;10.20;99.90;;;;;;4163767;28;20030;-62
2023/05/04 04:36:59;;;;;;;25.93;8.50;;;10.30;99.90;;;;;;4154332;28;20051;-61
2023/05/04 04:39:01;;;;;;;25.97;8.80;;;10.30;99.90;;;;;;4146395;28;20454;-68
2023/05/04 04:41:02;;;;;;;26.53;9.43;;;10.40;99.90;;;;;;4147471;28;20492;-66
2023/05/04 04:43:03;;;;;;;22.60;7.63;;;10.40;99.90;;;;;;4146453;28;20084;-70
2023/05/04 04:45:05;;;;;;;21.87;7.57;;;10.40;99.90;;;;;;4147674;28;20367;-65
2023/05/04 04:47:07;;;;;;;26.83;7.70;;;10.40;99.90;;;;;;4145904;28;20053;-71
2023/05/04 04:49:08;;;;;;;35.70;9.07;;;10.50;99.90;;;;;;4147602;28;20022;-71
2023/05/04 04:51:10;;;;;;;27.10;7.80;;;10.50;99.90;;;;;;4146259;28;20034;-69
2023/05/04 04:53:11;;;;;;;21.03;8.00;;;10.60;99.90;;;;;;4147523;28;20026;-68
2023/05/04 04:55:14;;;;;;;22.07;7.87;;;10.60;99.90;;;;;;4146029;28;20045;-66
2023/05/04 04:57:15;;;;;;;26.93;6.90;;;10.70;99.90;;;;;;4147037;28;20045;-72
2023/05/04 04:59:16;;;;;;;20.03;7.37;;;10.80;99.90;;;;;;4146230;28;20029;-68
2023/05/04 05:01:19;;;;;;;30.70;7.37;;;10.80;99.90;;;;;;4146951;28;20173;-71
2023/05/04 05:03:20;;;;;;;26.43;8.33;;;10.90;99.90;;;;;;4146332;28;20034;-68
2023/05/04 05:05:21;;;;;;;24.23;9.20;;;10.80;99.90;;;;;;4158689;28;20037;-67
2023/05/04 05:07:22;;;;;;;26.03;8.87;;;10.80;99.90;;;;;;4157838;28;20452;-63
2023/05/04 05:09:24;;;;;;;23.10;8.07;;;10.80;99.90;;;;;;4150759;28;20026;-68
2023/05/04 05:11:25;;;;;;;24.47;8.83;;;10.80;99.90;;;;;;4153606;28;20041;-67
2023/05/04 05:13:26;;;;;;;30.73;8.47;;;10.90;99.90;;;;;;4154001;28;20091;-66
2023/05/04 05:15:27;;;;;;;16.43;7.43;;;10.90;99.90;;;;;;4147349;28;20830;-61
2023/05/04 05:17:29;;;;;;;21.90;8.57;;;11.00;99.90;;;;;;4147040;28;20053;-65
2023/05/04 05:19:35;;;;;;;28.43;7.67;;;11.10;99.90;;;;;;4150436;28;20041;-69
2023/05/04 05:21:36;;;;;;;19.57;8.00;;;11.10;99.90;;;;;;4150846;28;20068;-69
2023/05/04 05:23:37;;;;;;;22.13;7.17;;;11.10;99.90;;;;;;4163552;28;20111;-72
2023/05/04 05:25:39;;;;;;;20.50;7.73;;;11.20;99.90;;;;;;4162333;28;20037;-69
2023/05/04 05:27:40;;;;;;;13.40;7.20;;;11.30;99.90;;;;;;4174058;28;20075;-68
2023/05/04 05:29:42;;;;;;;19.93;7.40;;;11.30;99.90;;;;;;4177959;28;20082;-70
2023/05/04 05:31:43;;;;;;;16.10;6.27;;;11.40;99.90;;;;;;4178358;28;20391;-68
2023/05/04 05:33:44;;;;;;;16.30;6.30;;;11.50;99.90;;;;;;4178578;28;20091;-69
2023/05/04 05:35:45;;;;;;;14.67;6.63;;;11.60;99.90;;;;;;4163259;28;20046;-65
2023/05/04 05:37:47;;;;;;;10.67;5.63;;;11.60;99.90;;;;;;4177219;28;20120;-59
2023/05/04 05:39:49;;;;;;;12.20;5.70;;;11.60;99.90;;;;;;4177814;28;20083;-67
2023/05/04 05:41:50;;;;;;;17.97;6.60;;;11.70;99.90;;;;;;4169718;28;20470;-57
2023/05/04 05:43:51;;;;;;;11.50;5.80;;;11.70;99.90;;;;;;4161968;28;20045;-70
2023/05/04 05:45:52;;;;;;;17.83;6.23;;;11.70;99.90;;;;;;4162578;28;20060;-70
2023/05/04 05:47:55;;;;;;;20.77;6.27;;;11.70;99.90;;;;;;4149395;28;20041;-60
2023/05/04 05:49:56;;;;;;;15.27;7.57;;;11.70;99.90;;;;;;4146560;28;20417;-69
2023/05/04 05:51:57;;;;;;;18.47;6.93;;;11.80;99.90;;;;;;4145148;28;20038;-70
2023/05/04 05:53:59;;;;;;;15.57;6.27;;;11.80;99.90;;;;;;4132573;28;20092;-72
2023/05/04 05:56:00;;;;;;;14.97;6.13;;;11.80;99.90;;;;;;4154485;28;20038;-66
2023/05/04 05:58:01;;;;;;;19.23;7.93;;;11.90;99.90;;;;;;4146706;28;20029;-70
2023/05/04 06:00:03;;;;;;;15.83;7.73;;;11.90;99.90;;;;;;4145693;28;20029;-69
2023/05/04 06:02:05;;;;;;;14.83;6.30;;;11.90;99.90;;;;;;4146901;28;20031;-70
2023/05/04 06:04:06;;;;;;;17.17;6.20;;;12.00;99.90;;;;;;4149955;28;20042;-65
2023/05/04 06:06:07;;;;;;;14.87;6.10;;;12.00;99.90;;;;;;4154018;28;20045;-71
2023/05/04 06:08:09;;;;;;;16.60;6.80;;;12.10;99.90;;;;;;4166070;28;20030;-64
2023/05/04 06:10:10;;;;;;;14.77;6.27;;;12.10;99.90;;;;;;4161551;28;20033;-72
2023/05/04 06:12:13;;;;;;;20.27;6.70;;;12.10;99.90;;;;;;4164457;28;20046;-69
2023/05/04 06:14:14;;;;;;;13.73;6.10;;;12.20;99.90;;;;;;4161753;28;20091;-57
2023/05/04 06:16:16;;;;;;;14.77;6.23;;;12.20;99.90;;;;;;4160948;28;20080;-58
2023/05/04 06:18:17;;;;;;;9.57;5.57;;;12.30;99.90;;;;;;4159651;28;20041;-67
2023/05/04 06:20:18;;;;;;;12.23;5.33;;;12.30;99.90;;;;;;4150917;28;20038;-70
2023/05/04 06:22:19;;;;;;;12.43;5.67;;;12.40;99.90;;;;;;4159740;28;20049;-71
2023/05/04 06:24:21;;;;;;;13.83;5.80;;;12.40;99.90;;;;;;4162475;28;20474;-70
2023/05/04 06:26:22;;;;;;;13.43;6.77;;;12.50;99.90;;;;;;4161640;28;20387;-69
2023/05/04 06:28:24;;;;;;;13.87;5.83;;;12.50;99.90;;;;;;4162499;28;20087;-71
2023/05/04 06:30:25;;;;;;;14.00;5.83;;;12.60;99.90;;;;;;4161355;28;20099;-66
2023/05/04 06:32:26;;;;;;;12.63;6.13;;;12.70;99.90;;;;;;4162321;28;20362;-71
2023/05/04 06:34:28;;;;;;;12.33;5.67;;;12.70;99.90;;;;;;4141431;28;20041;-74
2023/05/04 06:36:30;;;;;;;9.07;6.00;;;12.80;99.90;;;;;;4161002;28;20104;-69
2023/05/04 06:38:31;;;;;;;16.20;6.40;;;12.80;99.90;;;;;;4152358;28;20034;-56
2023/05/04 06:40:32;;;;;;;17.80;6.93;;;12.80;99.90;;;;;;4144599;28;20046;-70
2023/05/04 06:42:33;;;;;;;13.67;6.03;;;12.80;99.90;;;;;;4145369;28;20029;-65
2023/05/04 06:44:38;;;;;;;11.87;5.83;;;12.80;99.90;;;;;;4127003;28;20046;-71
2023/05/04 06:46:39;;;;;;;21.00;6.10;;;12.80;99.90;;;;;;4149182;28;20030;-67
2023/05/04 06:48:40;;;;;;;19.97;6.57;;;12.60;99.90;;;;;;4143393;28;20034;-56
2023/05/04 06:50:41;;;;;;;11.00;5.70;;;12.70;99.90;;;;;;4156662;28;20041;-57
2023/05/04 06:52:45;;;;;;;13.23;6.30;;;12.80;99.90;;;;;;4159856;28;20091;-71
2023/05/04 06:54:46;;;;;;;25.40;7.40;;;12.90;99.90;;;;;;4160127;28;20743;-66
2023/05/04 06:56:47;;;;;;;16.67;7.33;;;12.80;99.90;;;;;;4157236;28;20037;-69
2023/05/04 06:58:49;;;;;;;18.13;7.83;;;12.80;99.90;;;;;;4161437;28;20674;-59
2023/05/04 07:00:51;;;;;;;17.60;7.47;;;12.90;99.90;;;;;;4157975;28;20042;-60
2023/05/04 07:02:53;;;;;;;18.30;7.67;;;13.00;99.90;;;;;;4158879;28;20029;-67
2023/05/04 07:04:55;;;;;;;22.27;7.23;;;13.00;99.90;;;;;;4156677;28;20057;-60
2023/05/04 07:06:56;;;;;;;18.63;6.97;;;13.00;99.90;;;;;;4140322;28;20030;-70
2023/05/04 07:08:57;;;;;;;25.03;9.87;;;13.00;99.90;;;;;;4158898;28;20067;-55
2023/05/04 07:10:58;;;;;;;25.70;7.63;;;13.00;99.90;;;;;;4158661;28;20033;-67
2023/05/04 07:13:00;;;;;;;18.13;8.23;;;13.00;99.90;;;;;;4160379;28;20474;-52
2023/05/04 07:15:02;;;;;;;23.63;8.27;;;13.10;99.90;;;;;;4156774;28;20087;-60
2023/05/04 07:17:03;;;;;;;21.00;7.63;;;13.20;99.90;;;;;;4145261;28;20026;-57
2023/05/04 07:19:04;;;;;;;16.40;6.57;;;13.30;99.90;;;;;;4143715;28;20100;-56
2023/05/04 07:21:10;;;;;;;23.20;7.10;;;13.30;99.90;;;;;;4144640;28;20046;-57
2023/05/04 07:23:11;;;;;;;35.03;7.70;;;13.40;99.90;;;;;;4144294;28;20052;-62
2023/05/04 07:25:12;;;;;;;26.83;9.63;;;13.40;99.90;;;;;;4145491;28;20038;-71
2023/05/04 07:27:14;;;;;;;30.70;9.83;;;13.50;99.90;;;;;;4154123;28;20045;-74
2023/05/04 07:29:15;;;;;;;48.80;9.87;;;13.50;99.90;;;;;;4161550;28;20034;-73
2023/05/04 07:31:16;;;;;;;26.63;10.23;;;13.40;99.90;;;;;;4160057;28;20059;-66
2023/05/04 07:33:17;;;;;;;35.90;10.63;;;13.40;99.90;;;;;;4150160;28;20091;-69
2023/05/04 07:35:19;;;;;;;38.00;9.40;;;13.40;99.90;;;;;;4154063;28;20079;-62
2023/05/04 07:37:20;;;;;;;32.77;9.43;;;13.50;99.90;;;;;;4161896;28;20413;-60
2023/05/04 07:39:22;;;;;;;34.07;8.93;;;13.60;99.90;;;;;;4170930;28;20021;-65
2023/05/04 07:41:23;;;;;;;37.73;9.43;;;13.70;99.90;;;;;;4177728;28;20032;-59
2023/05/04 07:43:24;;;;;;;41.53;10.20;;;13.80;99.90;;;;;;4156515;28;20053;-63
2023/05/04 07:45:25;;;;;;;30.60;9.83;;;14.00;99.90;;;;;;4144336;28;20041;-64
2023/05/04 07:47:27;;;;;;;32.07;9.20;;;14.10;99.90;;;;;;4143646;28;20033;-64
2023/05/04 07:49:28;;;;;;;29.13;10.27;;;14.00;99.90;;;;;;4145738;28;20046;-68
2023/05/04 07:51:29;;;;;;;25.67;8.43;;;14.10;99.90;;;;;;4144927;28;20034;-68
2023/05/04 07:53:30;;;;;;;31.47;10.90;;;14.00;99.90;;;;;;4144004;28;20129;-55
2023/05/04 07:55:31;;;;;;;21.37;7.87;;;14.00;99.90;;;;;;4145177;28;20088;-68
2023/05/04 07:57:36;;;;;;;22.90;7.77;;;14.00;99.90;;;;;;4156817;28;20965;-65
2023/05/04 07:59:37;;;;;;;22.90;7.77;;;14.00;99.90;;;;;;4160465;28;20441;-70
2023/05/04 08:01:38;;;;;;;27.47;8.60;;;14.00;99.90;;;;;;4158275;28;20140;-67
2023/05/04 08:03:39;;;;;;;26.07;8.10;;;14.00;99.90;;;;;;4156122;28;20504;-59
2023/05/04 08:05:40;;;;;;;13.17;7.03;;;14.00;99.90;;;;;;4146294;28;20120;-70
2023/05/04 08:07:42;;;;;;;26.37;8.47;;;14.00;99.90;;;;;;4147590;28;20441;-63
2023/05/04 08:09:43;;;;;;;18.37;7.93;;;14.10;99.90;;;;;;4147287;28;20065;-58
2023/05/04 08:11:45;;;;;;;26.70;8.73;;;14.10;99.90;;;;;;4149118;28;20503;-56
2023/05/04 08:13:49;;;;;;;20.63;8.10;;;14.20;99.90;;;;;;4150991;28;20458;-66
2023/05/04 08:15:50;;;;;;;22.40;7.43;;;14.10;99.90;;;;;;4148586;28;20037;-67
2023/05/04 08:17:52;;;;;;;22.63;8.50;;;14.10;99.90;;;;;;4145910;28;20088;-68
2023/05/04 08:19:53;;;;;;;24.47;8.50;;;14.10;99.90;;;;;;4146991;28;20430;-59
2023/05/04 08:21:54;;;;;;;22.93;7.47;;;14.00;99.90;;;;;;4146965;28;20048;-67
2023/05/04 08:23:56;;;;;;;22.57;8.07;;;14.10;99.90;;;;;;4146509;28;20034;-57
2023/05/04 08:25:57;;;;;;;23.73;8.27;;;14.10;99.90;;;;;;4148000;28;20471;-64
2023/05/04 08:27:58;;;;;;;19.47;8.50;;;14.00;99.90;;;;;;4146120;28;20124;-56
2023/05/04 08:29:59;;;;;;;18.90;8.47;;;14.00;99.90;;;;;;4163264;28;20033;-60
2023/05/04 08:32:00;;;;;;;17.57;8.27;;;14.00;99.90;;;;;;4161844;28;20095;-70
2023/05/04 08:34:02;;;;;;;16.60;8.80;;;14.00;99.90;;;;;;4163701;28;20041;-65
2023/05/04 08:36:08;;;;;;;24.63;9.47;;;14.00;99.90;;;;;;4162880;28;20156;-65
2023/05/04 08:38:09;;;;;;;18.80;9.23;;;13.90;99.90;;;;;;4164186;28;20087;-66
2023/05/04 08:40:11;;;;;;;26.27;9.10;;;13.90;99.90;;;;;;4162101;28;20087;-62
2023/05/04 08:42:12;;;;;;;20.20;9.50;;;13.90;99.90;;;;;;4163204;28;20466;-63
2023/05/04 08:44:16;;;;;;;21.00;8.90;;;13.90;99.90;;;;;;4162394;28;20079;-58
2023/05/04 08:46:17;;;;;;;25.50;9.03;;;13.80;99.90;;;;;;4160047;28;20034;-70
2023/05/04 08:48:18;;;;;;;18.60;8.73;;;13.80;99.90;;;;;;4161645;28;20071;-68
2023/05/04 08:50:19;;;;;;;16.17;9.43;;;13.70;99.90;;;;;;4155663;28;21110;-68
2023/05/04 08:52:24;;;;;;;30.27;10.43;;;13.60;99.90;;;;;;4162631;28;20075;-59
2023/05/04 08:54:26;;;;;;;18.57;11.17;;;13.60;99.90;;;;;;4162642;28;20034;-56
2023/05/04 08:56:27;;;;;;;20.37;11.37;;;13.60;99.90;;;;;;4165058;28;20567;-67
2023/05/04 08:58:30;;;;;;;15.40;8.40;;;13.60;99.90;;;;;;4178846;28;20037;-67
2023/05/04 09:00:32;;;;;;;24.23;9.87;;;13.50;99.90;;;;;;4180133;28;20025;-58
2023/05/04 09:02:33;;;;;;;12.40;8.17;;;13.50;99.90;;;;;;4177992;28;20037;-65
2023/05/04 09:04:35;;;;;;;11.57;6.83;;;13.50;99.90;;;;;;4179921;28;20049;-71
2023/05/04 09:06:36;;;;;;;10.60;5.90;;;13.60;99.90;;;;;;4169106;28;20042;-66
2023/05/04 09:08:37;;;;;;;9.80;6.20;;;13.50;99.90;;;;;;4160657;28;20053;-57
2023/05/04 09:10:38;;;;;;;12.13;5.50;;;13.50;99.90;;;;;;4162057;28;20042;-65
2023/05/04 09:12:40;;;;;;;10.27;5.43;;;13.50;99.90;;;;;;4153292;28;20092;-68
2023/05/04 09:14:42;;;;;;;7.00;4.87;;;13.60;99.90;;;;;;4161626;28;20030;-62
2023/05/04 09:16:43;;;;;;;9.83;4.90;;;13.70;99.90;;;;;;4162170;28;20428;-68
2023/05/04 09:18:45;;;;;;;12.47;5.10;;;13.70;99.90;;;;;;4159375;28;20072;-66
2023/05/04 09:20:47;;;;;;;10.70;4.67;;;13.70;99.90;;;;;;4151776;28;20029;-57
2023/05/04 09:23:06;;;;;;;5.77;4.40;;;13.80;99.90;;;;;;4161755;28;20033;-62
2023/05/04 09:25:11;;;;;;;8.43;5.00;;;13.80;99.90;;;;;;4163025;28;20478;-57
2023/05/04 09:27:17;;;;;;;9.57;5.27;;;13.80;99.90;;;;;;4162504;28;20025;-69
2023/05/04 09:29:18;;;;;;;5.70;4.50;;;13.90;99.90;;;;;;4161680;28;20034;-65
2023/05/04 09:31:19;;;;;;;7.07;4.00;;;14.00;99.90;;;;;;4161007;28;20037;-65
2023/05/04 09:33:27;;;;;;;6.17;3.73;;;14.10;99.90;;;;;;4161624;28;20041;-69
2023/05/04 09:35:29;;;;;;;5.17;2.83;;;14.10;99.90;;;;;;4162683;28;20120;-58
2023/05/04 09:37:30;;;;;;;6.53;3.73;;;14.10;99.90;;;;;;4161256;28;20482;-68
2023/05/04 09:39:31;;;;;;;7.80;3.97;;;14.00;99.90;;;;;;4162200;28;20616;-66
2023/05/04 09:41:33;;;;;;;7.07;3.23;;;14.00;99.90;;;;;;4167683;28;20037;-62
2023/05/04 09:43:41;;;;;;;7.67;3.20;;;14.10;99.90;;;;;;4163947;28;20041;-60
2023/05/04 09:45:44;;;;;;;8.40;3.80;;;14.10;99.90;;;;;;4160662;28;20465;-59
2023/05/04 09:47:46;;;;;;;7.87;3.40;;;14.20;99.90;;;;;;4162599;28;20041;-64
2023/05/04 09:49:47;;;;;;;8.37;3.50;;;14.20;99.90;;;;;;4147159;28;20034;-61
2023/05/04 09:51:48;;;;;;;5.20;3.07;;;14.20;99.90;;;;;;4150534;28;20041;-67
2023/05/04 09:53:50;;;;;;;3.90;2.80;;;14.20;99.90;;;;;;4161757;28;20029;-69
2023/05/04 09:56:04;;;;;;;6.83;3.10;;;14.20;99.90;;;;;;4162548;28;20060;-66
2023/05/04 09:58:05;;;;;;;8.83;3.13;;;14.10;99.90;;;;;;4144344;28;20038;-62
2023/05/04 10:00:17;;;;;;;7.07;3.40;;;14.10;99.90;;;;;;4145442;28;20087;-60
2023/05/04 10:02:19;;;;;;;8.20;3.40;;;14.00;99.90;;;;;;4155494;28;20053;-60
2023/05/04 10:04:20;;;;;;;7.87;4.20;;;14.00;99.90;;;;;;4161771;28;20099;-61
2023/05/04 10:06:22;;;;;;;6.13;3.53;;;14.00;99.90;;;;;;4162015;28;20041;-58
2023/05/04 10:08:24;;;;;;;5.33;3.20;;;13.90;99.90;;;;;;4162356;28;20025;-62
2023/05/04 10:10:26;;;;;;;4.67;3.73;;;13.90;99.90;;;;;;4162244;28;20087;-60
2023/05/04 10:12:27;;;;;;;10.13;3.53;;;13.90;99.90;;;;;;4151727;28;20856;-58
2023/05/04 10:14:33;;;;;;;5.97;3.60;;;13.90;99.90;;;;;;4163805;28;20037;-58
2023/05/04 10:16:43;;;;;;;10.10;3.30;;;13.90;99.90;;;;;;4145629;28;20112;-67
2023/05/04 10:19:23;;;;;;;6.88;3.88;;;13.80;99.90;;;;;;4148182;28;20033;-55
2023/05/04 10:21:27;;;;;;;5.77;3.17;;;13.70;99.90;;;;;;4149735;28;20104;-68
2023/05/04 10:23:31;;;;;;;6.67;3.53;;;13.70;99.90;;;;;;4145555;28;20435;-57
2023/05/04 10:25:51;;;;;;;10.47;3.83;;;13.70;99.90;;;;;;4145602;28;20041;-71
2023/05/04 10:28:04;;;;;;;6.63;3.27;;;13.80;99.90;;;;;;4144598;28;20041;-66